Terminal Aerodrome Forecast
Issued by NWS Sioux Falls, SD

Home | Current Version | Previous Version | Graphics & Text | Print | Product List | Glossary Off
Versions: 1 2 3 4 5 6 7 8 9 10 11 12 13 14 15 16 17 18 19 20 21 22 23 24 25 26

000
FTUS43 KFSD 011131
TAFSUX
TAF
KSUX 011131Z 0112/0212 12004KT 4SM BR FEW003 BKN250
     FM011400 17007KT P6SM BKN250
     FM011900 18013G18KT P6SM SCT150 BKN200
     FM020000 15009KT P6SM BKN110
      TEMPO 0203/0206 P6SM -TSRA BKN080CB
     FM021000 15010KT P6SM SCT090=

USA.gov is the U.S. government's official web portal to all federal, state and local government web resources and services.